Time;durP1;ratioP1;P1;durP2;ratioP2;P2;SDS_P1;SDS_P2;PMS_P1;PMS_P2;Temp;Humidity;BMP_temperature;BMP_pressure;BME280_temperature;BME280_humidity;BME280_pressure;Samples;Min_cycle;Max_cycle;Signal;HPM_P1;HPM_P2
2022/04/05 00:00:54;;;;;;;4.88;1.10;;;;;;;;;;4953621;28;20027;-35
2022/04/05 00:03:19;;;;;;;2.03;1.42;;;;;;;;;;4953250;28;20074;-35
2022/04/05 00:05:44;;;;;;;4.50;1.88;;;;;;;;;;4953322;28;20023;-35
2022/04/05 00:08:10;;;;;;;2.47;1.27;;;;;;;;;;4968000;28;20119;-35
2022/04/05 00:10:36;;;;;;;1.75;1.20;;;;;;;;;;4953458;28;20067;-34
2022/04/05 00:13:05;;;;;;;2.75;1.23;;;;;;;;;;4953216;28;20037;-35
2022/04/05 00:15:32;;;;;;;2.33;1.27;;;;;;;;;;4953331;28;20027;-35
2022/04/05 00:17:57;;;;;;;3.85;1.00;;;;;;;;;;4953143;28;20506;-35
2022/04/05 00:20:23;;;;;;;1.33;1.23;;;;;;;;;;4953180;28;20114;-34
2022/04/05 00:22:48;;;;;;;1.38;1.05;;;;;;;;;;4953135;28;20023;-35
2022/04/05 00:25:13;;;;;;;1.30;1.17;;;;;;;;;;4953109;28;20553;-35
2022/04/05 00:27:39;;;;;;;3.55;2.17;;;;;;;;;;4953045;29;20023;-35
2022/04/05 00:30:04;;;;;;;4.68;1.52;;;;;;;;;;4967855;28;20548;-35
2022/04/05 00:32:30;;;;;;;3.25;1.77;;;;;;;;;;4953027;28;20027;-35
2022/04/05 00:34:55;;;;;;;3.53;2.20;;;;;;;;;;4953125;28;20035;-35
2022/04/05 00:37:21;;;;;;;2.83;2.08;;;;;;;;;;4953033;28;20027;-35
2022/04/05 00:39:50;;;;;;;9.75;2.38;;;;;;;;;;4954917;28;20228;-35
2022/04/05 00:42:15;;;;;;;2.42;1.88;;;;;;;;;;4956592;28;20023;-35
2022/04/05 00:44:41;;;;;;;4.18;2.35;;;;;;;;;;4956711;28;20039;-35
2022/04/05 00:47:25;;;;;;;3.08;2.03;;;;;;;;;;4956647;28;20210;-35
2022/04/05 00:49:51;;;;;;;3.08;1.92;;;;;;;;;;4956893;28;20051;-35
2022/04/05 00:52:18;;;;;;;3.67;1.83;;;;;;;;;;4956559;28;20369;-34
2022/04/05 00:54:44;;;;;;;2.42;1.85;;;;;;;;;;4956881;28;20098;-35
2022/04/05 00:57:13;;;;;;;4.28;2.47;;;;;;;;;;4956698;28;20027;-35
2022/04/05 00:59:41;;;;;;;2.30;1.52;;;;;;;;;;4956760;28;20027;-35
2022/04/05 01:02:09;;;;;;;2.40;1.98;;;;;;;;;;4956388;28;20039;-35
2022/04/05 01:04:35;;;;;;;2.92;2.20;;;;;;;;;;4971267;28;20395;-35
2022/04/05 01:07:02;;;;;;;2.53;1.60;;;;;;;;;;4956410;28;20023;-35
2022/04/05 01:09:28;;;;;;;2.33;2.00;;;;;;;;;;4956231;28;20048;-35
2022/04/05 01:11:53;;;;;;;2.95;2.17;;;;;;;;;;4956303;28;20034;-35
2022/04/05 01:14:19;;;;;;;3.22;2.08;;;;;;;;;;4956160;28;20492;-35
2022/04/05 01:16:44;;;;;;;2.25;1.70;;;;;;;;;;4956239;28;20019;-35
2022/04/05 01:19:09;;;;;;;2.30;1.63;;;;;;;;;;4956384;28;20031;-35
2022/04/05 01:21:38;;;;;;;2.95;2.20;;;;;;;;;;4956029;28;20031;-36
2022/04/05 01:24:06;;;;;;;4.53;1.98;;;;;;;;;;4956042;28;20175;-35
2022/04/05 01:26:40;;;;;;;6.50;1.95;;;;;;;;;;4955993;28;20035;-35
2022/04/05 01:29:06;;;;;;;2.40;2.20;;;;;;;;;;4955823;28;20457;-35
2022/04/05 01:31:55;;;;;;;2.45;2.00;;;;;;;;;;4954903;29;20468;-35
2022/04/05 01:34:22;;;;;;;2.78;1.77;;;;;;;;;;4955375;28;20176;-35
2022/04/05 01:36:51;;;;;;;1.40;1.30;;;;;;;;;;4956050;28;20451;-35
2022/04/05 01:39:17;;;;;;;2.13;1.85;;;;;;;;;;4955777;28;20035;-35
2022/04/05 01:41:43;;;;;;;6.45;2.30;;;;;;;;;;4955941;28;20078;-35
2022/04/05 01:44:09;;;;;;;2.03;1.52;;;;;;;;;;4955454;28;20461;-35
2022/04/05 01:46:35;;;;;;;4.53;1.95;;;;;;;;;;4955984;28;20061;-35
2022/04/05 01:49:00;;;;;;;5.72;1.90;;;;;;;;;;4955537;28;20566;-34
2022/04/05 01:51:25;;;;;;;2.22;1.70;;;;;;;;;;4954733;28;20019;-35
2022/04/05 01:53:51;;;;;;;5.72;2.00;;;;;;;;;;4955517;28;20031;-34
2022/04/05 01:56:16;;;;;;;2.70;1.88;;;;;;;;;;4970236;28;20015;-35
2022/04/05 01:58:42;;;;;;;3.30;2.25;;;;;;;;;;4955512;28;20478;-35
2022/04/05 02:01:07;;;;;;;6.20;2.33;;;;;;;;;;4955349;28;20034;-35
2022/04/05 02:03:33;;;;;;;3.28;1.95;;;;;;;;;;4955607;28;20134;-35
2022/04/05 02:06:00;;;;;;;2.33;2.13;;;;;;;;;;4970199;28;20019;-35
2022/04/05 02:08:27;;;;;;;3.75;1.95;;;;;;;;;;4955187;28;20043;-35
2022/04/05 02:10:52;;;;;;;2.33;1.50;;;;;;;;;;4969940;28;20016;-35
2022/04/05 02:13:19;;;;;;;4.47;1.70;;;;;;;;;;4969951;28;20086;-35
2022/04/05 02:15:50;;;;;;;2.45;2.13;;;;;;;;;;4953871;28;20027;-34
2022/04/05 02:18:16;;;;;;;1.98;1.70;;;;;;;;;;4955296;28;20038;-35
2022/04/05 02:20:44;;;;;;;2.85;1.77;;;;;;;;;;4953735;28;20035;-35
2022/04/05 02:23:13;;;;;;;2.60;1.90;;;;;;;;;;4969720;28;20031;-35
2022/04/05 02:25:47;;;;;;;2.45;1.70;;;;;;;;;;4953580;28;20031;-35
2022/04/05 02:28:15;;;;;;;2.20;2.00;;;;;;;;;;4969553;28;20054;-35
2022/04/05 02:30:47;;;;;;;2.55;2.10;;;;;;;;;;4955055;28;20034;-35
2022/04/05 02:33:16;;;;;;;3.88;2.35;;;;;;;;;;4969499;28;20035;-34
2022/04/05 02:35:43;;;;;;;3.53;2.00;;;;;;;;;;4953595;28;20033;-35
2022/04/05 02:38:10;;;;;;;2.50;1.77;;;;;;;;;;4969498;28;20497;-35
2022/04/05 02:40:39;;;;;;;3.53;1.98;;;;;;;;;;4954628;28;20058;-35
2022/04/05 02:43:06;;;;;;;2.55;1.88;;;;;;;;;;4953239;28;20416;-35
2022/04/05 02:45:32;;;;;;;3.78;2.35;;;;;;;;;;4953349;28;20023;-35
2022/04/05 02:47:58;;;;;;;2.63;1.83;;;;;;;;;;4969282;28;20525;-35
2022/04/05 02:50:26;;;;;;;6.22;2.30;;;;;;;;;;4953190;28;20054;-35
2022/04/05 02:52:52;;;;;;;3.97;2.58;;;;;;;;;;4954707;28;20397;-35
2022/04/05 02:55:19;;;;;;;5.80;3.33;;;;;;;;;;4953054;28;20384;-35
2022/04/05 02:57:46;;;;;;;5.18;2.53;;;;;;;;;;4954363;28;20471;-35
2022/04/05 03:00:19;;;;;;;5.43;3.15;;;;;;;;;;4954074;28;20037;-35
2022/04/05 03:02:47;;;;;;;5.43;2.65;;;;;;;;;;4969072;28;20023;-35
2022/04/05 03:05:14;;;;;;;5.57;3.10;;;;;;;;;;4952903;28;20034;-35
2022/04/05 03:07:41;;;;;;;6.13;2.60;;;;;;;;;;4968960;28;20027;-35
2022/04/05 03:10:09;;;;;;;4.88;3.15;;;;;;;;;;4954150;28;20170;-35
2022/04/05 03:12:36;;;;;;;6.22;2.42;;;;;;;;;;4968847;28;20086;-34
2022/04/05 03:15:04;;;;;;;3.72;2.70;;;;;;;;;;4952775;28;20125;-35
2022/04/05 03:17:30;;;;;;;5.13;2.75;;;;;;;;;;4952767;29;20035;-34
2022/04/05 03:19:56;;;;;;;4.38;2.78;;;;;;;;;;4953999;28;20150;-35
2022/04/05 03:22:22;;;;;;;3.40;2.28;;;;;;;;;;4952501;28;20046;-35
2022/04/05 03:24:49;;;;;;;3.88;2.63;;;;;;;;;;4952619;29;20015;-35
2022/04/05 03:27:15;;;;;;;2.75;1.90;;;;;;;;;;4968597;28;20073;-35
2022/04/05 03:29:40;;;;;;;3.38;2.22;;;;;;;;;;4953684;28;20035;-34
2022/04/05 03:32:06;;;;;;;4.55;3.17;;;;;;;;;;4952392;28;20086;-35
2022/04/05 03:34:32;;;;;;;5.82;3.08;;;;;;;;;;4968561;28;20027;-35
2022/04/05 03:36:58;;;;;;;4.68;2.40;;;;;;;;;;4953509;28;20466;-34
2022/04/05 03:39:24;;;;;;;6.28;3.00;;;;;;;;;;4952402;28;20118;-35
2022/04/05 03:41:50;;;;;;;3.95;2.50;;;;;;;;;;4952358;28;20151;-35
2022/04/05 03:44:16;;;;;;;2.70;2.15;;;;;;;;;;4952072;28;20540;-35
2022/04/05 03:46:45;;;;;;;7.40;1.75;;;;;;;;;;4953640;28;20027;-35
2022/04/05 03:49:11;;;;;;;2.80;2.38;;;;;;;;;;4968139;28;20043;-35
2022/04/05 03:51:36;;;;;;;4.10;2.50;;;;;;;;;;4953453;28;20110;-34
2022/04/05 03:54:03;;;;;;;6.43;2.33;;;;;;;;;;4968264;28;20023;-35
2022/04/05 03:56:32;;;;;;;6.25;2.25;;;;;;;;;;4968498;28;20493;-35
2022/04/05 03:59:02;;;;;;;4.13;2.05;;;;;;;;;;4968223;28;20054;-35
2022/04/05 04:01:27;;;;;;;2.47;2.22;;;;;;;;;;4968061;28;20690;-35
2022/04/05 04:03:53;;;;;;;5.82;2.63;;;;;;;;;;4968452;28;20027;-35
2022/04/05 04:06:19;;;;;;;4.28;2.47;;;;;;;;;;4968042;28;20031;-35
2022/04/05 04:08:45;;;;;;;3.67;2.17;;;;;;;;;;4952042;28;20031;-35
2022/04/05 04:11:13;;;;;;;3.42;2.50;;;;;;;;;;4951880;28;20082;-35
2022/04/05 04:13:40;;;;;;;2.85;1.77;;;;;;;;;;4968754;28;20049;-35
2022/04/05 04:16:06;;;;;;;4.07;2.33;;;;;;;;;;4974406;28;20122;-35
2022/04/05 04:18:34;;;;;;;3.72;2.10;;;;;;;;;;4958313;28;20093;-34
2022/04/05 04:21:01;;;;;;;2.35;1.60;;;;;;;;;;4974442;28;20082;-35
2022/04/05 04:23:26;;;;;;;2.13;1.40;;;;;;;;;;4958277;28;20394;-35
2022/04/05 04:25:54;;;;;;;2.55;1.80;;;;;;;;;;4974342;28;20031;-35
2022/04/05 04:28:21;;;;;;;3.03;2.00;;;;;;;;;;4959643;28;20101;-35
2022/04/05 04:30:46;;;;;;;2.25;1.73;;;;;;;;;;4959541;28;20525;-35
2022/04/05 04:33:13;;;;;;;1.55;1.45;;;;;;;;;;4959433;28;20030;-35
2022/04/05 04:35:40;;;;;;;3.92;1.40;;;;;;;;;;4959530;28;20106;-35
2022/04/05 04:38:07;;;;;;;1.63;1.33;;;;;;;;;;4959754;28;20019;-34
2022/04/05 04:40:32;;;;;;;1.27;1.17;;;;;;;;;;4959365;28;20071;-35
2022/04/05 04:42:58;;;;;;;2.20;1.58;;;;;;;;;;4974269;28;20079;-35
2022/04/05 04:45:26;;;;;;;3.45;1.70;;;;;;;;;;4959377;28;20465;-35
2022/04/05 04:47:52;;;;;;;1.77;1.10;;;;;;;;;;4959457;28;20023;-35
2022/04/05 04:50:17;;;;;;;1.63;1.48;;;;;;;;;;4959267;28;20035;-34
2022/04/05 04:52:43;;;;;;;3.60;1.60;;;;;;;;;;4959377;28;20023;-34
2022/04/05 04:55:08;;;;;;;3.63;1.67;;;;;;;;;;4974072;28;20039;-36
2022/04/05 04:57:34;;;;;;;1.95;1.35;;;;;;;;;;4974205;28;20019;-34
2022/04/05 04:59:59;;;;;;;1.95;1.48;;;;;;;;;;4974157;28;20078;-34
2022/04/05 05:02:25;;;;;;;2.08;1.30;;;;;;;;;;4959112;28;20047;-34
2022/04/05 05:04:52;;;;;;;1.40;1.30;;;;;;;;;;4959505;28;20069;-35
2022/04/05 05:07:18;;;;;;;1.50;1.13;;;;;;;;;;4959194;28;20477;-34
2022/04/05 05:09:43;;;;;;;3.20;1.55;;;;;;;;;;4959161;29;20039;-35
2022/04/05 05:12:12;;;;;;;2.53;1.55;;;;;;;;;;4959330;28;20651;-34
2022/04/05 05:14:38;;;;;;;2.83;1.75;;;;;;;;;;4974041;28;20039;-35
2022/04/05 05:17:04;;;;;;;1.70;1.38;;;;;;;;;;4959127;28;20478;-34
2022/04/05 05:19:30;;;;;;;1.60;1.15;;;;;;;;;;4959043;28;20035;-35
2022/04/05 05:21:56;;;;;;;2.83;1.98;;;;;;;;;;4957795;28;20082;-35
2022/04/05 05:24:21;;;;;;;2.30;1.65;;;;;;;;;;4959010;28;20035;-34
2022/04/05 05:26:47;;;;;;;2.88;1.23;;;;;;;;;;4955680;28;20418;-35
2022/04/05 05:29:13;;;;;;;1.80;1.40;;;;;;;;;;4956133;28;20039;-34
2022/04/05 05:31:39;;;;;;;2.88;1.48;;;;;;;;;;4955920;28;20019;-35
2022/04/05 05:34:05;;;;;;;4.05;1.70;;;;;;;;;;4956202;28;20045;-35
2022/04/05 05:36:30;;;;;;;5.20;1.73;;;;;;;;;;4956057;28;20510;-34
2022/04/05 05:38:56;;;;;;;1.95;1.30;;;;;;;;;;4956127;28;20478;-35
2022/04/05 05:41:21;;;;;;;1.85;1.58;;;;;;;;;;4955743;28;20525;-34
2022/04/05 05:43:47;;;;;;;3.72;1.98;;;;;;;;;;4955562;28;20063;-35
2022/04/05 05:46:12;;;;;;;2.05;1.38;;;;;;;;;;4955597;28;20043;-35
2022/04/05 05:48:38;;;;;;;2.58;1.83;;;;;;;;;;4955633;28;20075;-35
2022/04/05 05:51:05;;;;;;;1.38;1.27;;;;;;;;;;4955551;28;20089;-34
2022/04/05 05:53:31;;;;;;;2.88;2.00;;;;;;;;;;4970274;28;20474;-35
2022/04/05 05:55:56;;;;;;;1.67;1.35;;;;;;;;;;4955459;28;20023;-35
2022/04/05 05:58:22;;;;;;;3.40;2.10;;;;;;;;;;4955344;28;20027;-35
2022/04/05 06:00:48;;;;;;;2.42;1.55;;;;;;;;;;4955430;28;20134;-35
2022/04/05 06:03:13;;;;;;;2.17;1.98;;;;;;;;;;4970269;28;20031;-34
2022/04/05 06:05:39;;;;;;;2.10;1.90;;;;;;;;;;4955244;28;20027;-34
2022/04/05 06:08:05;;;;;;;3.13;1.50;;;;;;;;;;4955248;28;20034;-34
2022/04/05 06:10:30;;;;;;;2.95;1.80;;;;;;;;;;4953885;28;20121;-35
2022/04/05 06:12:57;;;;;;;2.20;1.65;;;;;;;;;;4955228;28;20042;-35
2022/04/05 06:15:25;;;;;;;4.53;2.10;;;;;;;;;;4953882;28;20621;-34
2022/04/05 06:17:51;;;;;;;2.08;1.48;;;;;;;;;;4970345;28;20489;-34
2022/04/05 06:20:17;;;;;;;5.88;2.00;;;;;;;;;;4954706;28;20055;-35
2022/04/05 06:22:46;;;;;;;2.40;1.90;;;;;;;;;;4955062;28;20106;-35
2022/04/05 06:25:12;;;;;;;3.10;1.88;;;;;;;;;;4954947;28;20068;-35
2022/04/05 06:27:37;;;;;;;3.97;1.65;;;;;;;;;;4955238;28;20054;-35
2022/04/05 06:30:04;;;;;;;2.10;1.58;;;;;;;;;;4954867;28;20483;-35
2022/04/05 06:32:30;;;;;;;3.83;2.35;;;;;;;;;;4954865;28;20062;-34
2022/04/05 06:34:55;;;;;;;3.53;2.35;;;;;;;;;;4954804;28;20490;-35
2022/04/05 06:37:20;;;;;;;6.32;2.67;;;;;;;;;;4954708;28;20498;-34
2022/04/05 06:39:46;;;;;;;3.13;2.30;;;;;;;;;;4954775;28;20028;-35
2022/04/05 06:42:11;;;;;;;3.22;1.92;;;;;;;;;;4954413;28;20027;-35
2022/04/05 06:44:37;;;;;;;4.53;3.13;;;;;;;;;;4954947;28;20545;-35
2022/04/05 06:47:02;;;;;;;5.28;2.40;;;;;;;;;;4954907;28;20788;-34
2022/04/05 06:49:28;;;;;;;3.58;1.98;;;;;;;;;;4954447;28;20617;-34
2022/04/05 06:51:53;;;;;;;3.90;2.40;;;;;;;;;;4954766;28;20038;-34
2022/04/05 06:54:19;;;;;;;5.80;3.10;;;;;;;;;;4954380;28;20086;-34
2022/04/05 06:56:44;;;;;;;4.53;3.17;;;;;;;;;;4954328;28;20063;-34
2022/04/05 06:59:09;;;;;;;4.03;2.90;;;;;;;;;;4954236;28;20023;-34
2022/04/05 07:01:35;;;;;;;3.30;2.08;;;;;;;;;;4954359;28;20058;-35
2022/04/05 07:04:01;;;;;;;2.88;2.22;;;;;;;;;;4954189;28;20023;-35
2022/04/05 07:06:26;;;;;;;8.70;2.88;;;;;;;;;;4954163;28;20027;-35
2022/04/05 07:08:52;;;;;;;4.70;2.45;;;;;;;;;;4954151;28;20110;-35
2022/04/05 07:11:17;;;;;;;2.83;2.10;;;;;;;;;;4954073;28;20039;-35
2022/04/05 07:13:43;;;;;;;3.65;2.05;;;;;;;;;;4954402;28;20047;-35
2022/04/05 07:16:08;;;;;;;4.22;2.30;;;;;;;;;;4952768;29;20031;-35
2022/04/05 07:18:34;;;;;;;2.50;2.20;;;;;;;;;;4954062;28;20458;-35
2022/04/05 07:21:01;;;;;;;3.50;2.50;;;;;;;;;;4968707;28;20039;-34
2022/04/05 07:23:26;;;;;;;9.10;2.63;;;;;;;;;;4953887;28;20616;-34
2022/04/05 07:25:51;;;;;;;2.53;1.67;;;;;;;;;;4954181;28;20046;-35
2022/04/05 07:28:17;;;;;;;3.63;2.03;;;;;;;;;;4968622;28;20155;-34
2022/04/05 07:30:42;;;;;;;2.75;2.03;;;;;;;;;;4954003;28;20042;-35
2022/04/05 07:33:08;;;;;;;3.22;2.28;;;;;;;;;;4953869;28;20446;-35
2022/04/05 07:35:34;;;;;;;2.83;1.90;;;;;;;;;;4953701;28;20390;-35
2022/04/05 07:37:59;;;;;;;3.40;2.38;;;;;;;;;;4953937;28;20042;-35
2022/04/05 07:40:27;;;;;;;3.08;2.35;;;;;;;;;;4953625;28;20035;-35
2022/04/05 07:42:52;;;;;;;4.03;2.65;;;;;;;;;;4968318;28;20043;-35
2022/04/05 07:45:18;;;;;;;2.63;2.25;;;;;;;;;;4953505;28;20039;-35
2022/04/05 07:47:44;;;;;;;5.32;2.80;;;;;;;;;;4953656;28;20033;-35
2022/04/05 07:50:10;;;;;;;5.38;3.72;;;;;;;;;;4952810;28;20117;-35
2022/04/05 07:52:36;;;;;;;4.80;3.38;;;;;;;;;;4953537;28;20025;-35
2022/04/05 07:55:01;;;;;;;7.57;4.43;;;;;;;;;;4953706;28;20031;-35
2022/04/05 07:57:27;;;;;;;5.97;3.55;;;;;;;;;;4953384;28;20030;-35
2022/04/05 07:59:53;;;;;;;10.02;3.70;;;;;;;;;;4953352;28;20034;-35
2022/04/05 08:02:19;;;;;;;8.10;4.20;;;;;;;;;;4953617;29;20659;-35
2022/04/05 08:04:44;;;;;;;12.18;4.25;;;;;;;;;;4953695;28;20110;-34
2022/04/05 08:07:10;;;;;;;6.38;4.22;;;;;;;;;;4953132;28;20382;-35
2022/04/05 08:09:35;;;;;;;8.23;4.22;;;;;;;;;;4953291;28;20047;-35
2022/04/05 08:12:02;;;;;;;10.35;4.68;;;;;;;;;;4953258;28;20422;-35
2022/04/05 08:14:29;;;;;;;9.20;4.22;;;;;;;;;;4953421;28;20085;-35
2022/04/05 08:16:56;;;;;;;13.55;4.78;;;;;;;;;;4953370;28;20023;-34
2022/04/05 08:19:22;;;;;;;13.52;5.53;;;;;;;;;;4953261;28;20027;-35
2022/04/05 08:21:48;;;;;;;8.88;4.60;;;;;;;;;;4953109;28;20026;-35
2022/04/05 08:24:14;;;;;;;9.52;5.32;;;;;;;;;;4953414;28;20110;-35
2022/04/05 08:26:39;;;;;;;11.35;4.43;;;;;;;;;;4953185;28;20020;-36
2022/04/05 08:29:04;;;;;;;8.68;5.15;;;;;;;;;;4953342;28;20039;-35
2022/04/05 08:31:30;;;;;;;9.70;4.93;;;;;;;;;;4951776;28;20077;-34
2022/04/05 08:33:56;;;;;;;9.02;4.57;;;;;;;;;;4953175;28;20035;-35
2022/04/05 08:36:21;;;;;;;10.25;5.35;;;;;;;;;;4952964;28;20151;-35
2022/04/05 08:38:47;;;;;;;7.05;4.53;;;;;;;;;;4953421;28;20074;-35
2022/04/05 08:41:16;;;;;;;12.43;4.53;;;;;;;;;;4952968;28;20102;-35
2022/04/05 08:43:43;;;;;;;14.63;5.82;;;;;;;;;;4952996;28;20054;-35
2022/04/05 08:46:10;;;;;;;8.45;5.28;;;;;;;;;;4953040;28;20035;-41
2022/04/05 08:48:36;;;;;;;9.73;4.75;;;;;;;;;;4952891;28;20074;-35
2022/04/05 08:51:02;;;;;;;7.88;5.07;;;;;;;;;;4952898;28;20027;-35
2022/04/05 08:53:29;;;;;;;11.60;4.95;;;;;;;;;;4952876;28;20089;-35
2022/04/05 08:55:55;;;;;;;8.10;5.20;;;;;;;;;;4952904;28;20106;-35
2022/04/05 08:58:21;;;;;;;7.63;4.18;;;;;;;;;;4952797;28;20167;-35
2022/04/05 09:00:46;;;;;;;8.65;4.95;;;;;;;;;;4969288;28;20023;-36
2022/04/05 09:03:12;;;;;;;9.02;5.45;;;;;;;;;;4956642;28;20041;-35
2022/04/05 09:05:39;;;;;;;11.48;6.55;;;;;;;;;;4956402;28;20397;-35
2022/04/05 09:08:16;;;;;;;11.32;6.45;;;;;;;;;;4971212;28;20046;-35
2022/04/05 09:10:42;;;;;;;11.73;5.63;;;;;;;;;;4956280;28;20391;-35
2022/04/05 09:13:12;;;;;;;13.23;6.63;;;;;;;;;;4956298;28;20035;-34
2022/04/05 09:15:41;;;;;;;13.25;6.40;;;;;;;;;;4971435;28;20027;-35
2022/04/05 09:18:07;;;;;;;14.95;6.65;;;;;;;;;;4956465;28;20031;-35
2022/04/05 09:20:43;;;;;;;20.35;7.97;;;;;;;;;;4956330;28;20031;-35
2022/04/05 09:23:24;;;;;;;16.60;8.30;;;;;;;;;;4956309;28;20104;-35
2022/04/05 09:26:04;;;;;;;9.07;6.28;;;;;;;;;;4956344;28;20027;-35
2022/04/05 09:28:30;;;;;;;16.80;7.93;;;;;;;;;;4955907;28;20027;-35
2022/04/05 09:30:59;;;;;;;16.55;8.20;;;;;;;;;;4955971;28;20054;-35
2022/04/05 09:33:27;;;;;;;11.50;6.80;;;;;;;;;;4955819;28;20023;-35
2022/04/05 09:36:01;;;;;;;8.82;6.43;;;;;;;;;;4955976;28;20107;-35
2022/04/05 09:38:30;;;;;;;13.80;7.00;;;;;;;;;;4955729;28;20035;-34
2022/04/05 09:41:08;;;;;;;10.05;5.57;;;;;;;;;;4970664;28;20584;-35
2022/04/05 09:43:34;;;;;;;13.10;6.75;;;;;;;;;;4955596;28;20494;-35
2022/04/05 09:46:01;;;;;;;15.32;7.50;;;;;;;;;;4955934;28;20042;-35
2022/04/05 09:48:29;;;;;;;15.77;8.20;;;;;;;;;;4954353;28;20039;-35
2022/04/05 09:50:59;;;;;;;9.07;6.25;;;;;;;;;;4955642;28;20106;-34
2022/04/05 09:53:29;;;;;;;12.52;6.55;;;;;;;;;;4955492;28;20043;-35
2022/04/05 09:56:02;;;;;;;15.85;7.75;;;;;;;;;;4955625;28;20019;-35
2022/04/05 09:58:28;;;;;;;13.48;6.60;;;;;;;;;;4970361;28;20031;-35
2022/04/05 10:01:08;;;;;;;11.77;6.97;;;;;;;;;;4955362;28;20062;-35
2022/04/05 10:03:34;;;;;;;13.15;6.78;;;;;;;;;;4970184;28;20151;-35
2022/04/05 10:06:00;;;;;;;13.88;7.50;;;;;;;;;;4970576;28;20374;-35
2022/04/05 10:08:27;;;;;;;13.98;6.72;;;;;;;;;;4955458;28;20043;-35
2022/04/05 10:10:53;;;;;;;11.02;7.43;;;;;;;;;;4955559;28;20016;-35
2022/04/05 10:13:19;;;;;;;13.93;7.40;;;;;;;;;;4954498;28;20038;-35
2022/04/05 10:15:47;;;;;;;12.38;6.57;;;;;;;;;;4955239;28;20019;-35
2022/04/05 10:18:14;;;;;;;16.88;7.00;;;;;;;;;;4955451;28;20031;-35
2022/04/05 10:20:40;;;;;;;12.73;7.75;;;;;;;;;;4955079;28;20030;-35
2022/04/05 10:23:07;;;;;;;11.75;7.75;;;;;;;;;;4955072;28;20434;-35
2022/04/05 10:25:34;;;;;;;14.55;6.88;;;;;;;;;;4954993;28;20070;-36
2022/04/05 10:27:59;;;;;;;13.77;7.25;;;;;;;;;;4954974;28;20043;-35
2022/04/05 10:30:31;;;;;;;13.48;8.60;;;;;;;;;;4954761;28;20030;-34
2022/04/05 10:33:03;;;;;;;13.68;7.57;;;;;;;;;;4969705;28;20098;-35
2022/04/05 10:35:29;;;;;;;14.70;7.72;;;;;;;;;;4954777;28;20049;-35
2022/04/05 10:38:11;;;;;;;23.73;7.68;;;;;;;;;;4954830;28;20533;-35
2022/04/05 10:40:37;;;;;;;16.08;8.25;;;;;;;;;;4954690;28;20034;-34
2022/04/05 10:43:14;;;;;;;15.90;8.80;;;;;;;;;;4953274;28;20135;-40
2022/04/05 10:45:44;;;;;;;16.42;8.90;;;;;;;;;;4954725;28;20034;-34
2022/04/05 10:48:18;;;;;;;15.32;8.63;;;;;;;;;;4954783;28;20462;-35
2022/04/05 10:50:45;;;;;;;15.48;9.23;;;;;;;;;;4954465;28;20086;-35
2022/04/05 10:53:10;;;;;;;20.33;9.15;;;;;;;;;;4954520;28;20603;-35
2022/04/05 10:55:55;;;;;;;15.70;8.75;;;;;;;;;;4954486;28;20035;-35
2022/04/05 10:58:20;;;;;;;11.98;6.93;;;;;;;;;;4954277;28;20051;-35
2022/04/05 11:00:48;;;;;;;11.10;7.60;;;;;;;;;;4954341;28;20117;-35
2022/04/05 11:03:14;;;;;;;13.35;8.52;;;;;;;;;;4954282;28;20042;-35
2022/04/05 11:05:41;;;;;;;15.45;9.27;;;;;;;;;;4954505;29;20015;-35
2022/04/05 11:08:17;;;;;;;17.95;8.95;;;;;;;;;;4954203;28;20034;-35
2022/04/05 11:10:44;;;;;;;12.95;7.07;;;;;;;;;;4954452;28;20035;-34
2022/04/05 11:13:14;;;;;;;14.85;8.15;;;;;;;;;;4954471;28;20090;-34
2022/04/05 11:15:46;;;;;;;17.80;8.13;;;;;;;;;;4954156;28;20110;-35
2022/04/05 11:18:16;;;;;;;13.73;8.35;;;;;;;;;;4954062;28;20054;-35
2022/04/05 11:20:44;;;;;;;16.00;8.85;;;;;;;;;;4953983;28;20039;-34
2022/04/05 11:23:11;;;;;;;14.27;8.85;;;;;;;;;;4953640;28;20070;-35
2022/04/05 11:25:36;;;;;;;14.15;8.00;;;;;;;;;;4953612;28;20035;-35
2022/04/05 11:28:21;;;;;;;15.52;7.95;;;;;;;;;;4953870;28;20434;-34
2022/04/05 11:31:05;;;;;;;17.35;8.80;;;;;;;;;;4954104;28;20132;-35
2022/04/05 11:33:34;;;;;;;19.08;8.57;;;;;;;;;;4953701;28;20031;-35
2022/04/05 11:36:02;;;;;;;17.15;8.75;;;;;;;;;;4953735;28;20410;-35
2022/04/05 11:38:31;;;;;;;17.30;9.07;;;;;;;;;;4952442;28;20039;-35
2022/04/05 11:41:03;;;;;;;16.13;8.32;;;;;;;;;;4953609;28;20057;-35
2022/04/05 11:43:50;;;;;;;16.60;8.20;;;;;;;;;;4953441;28;20122;-35
2022/04/05 11:46:16;;;;;;;15.35;9.15;;;;;;;;;;4953876;28;20110;-35
2022/04/05 11:48:43;;;;;;;12.02;7.38;;;;;;;;;;4953510;28;20545;-34
2022/04/05 11:51:10;;;;;;;13.45;7.53;;;;;;;;;;4953721;28;20034;-36
2022/04/05 11:53:35;;;;;;;15.82;9.43;;;;;;;;;;4953751;28;20031;-35
2022/04/05 11:56:12;;;;;;;13.68;7.82;;;;;;;;;;4953739;28;20032;-35
2022/04/05 11:58:43;;;;;;;13.77;8.13;;;;;;;;;;4953436;28;20494;-35
2022/04/05 12:01:09;;;;;;;14.40;9.40;;;;;;;;;;4953650;28;20377;-35
2022/04/05 12:03:45;;;;;;;11.32;8.50;;;;;;;;;;4953382;28;20027;-35
2022/04/05 12:06:12;;;;;;;16.95;9.27;;;;;;;;;;4953667;28;20031;-35
2022/04/05 12:08:38;;;;;;;13.85;9.00;;;;;;;;;;4953092;28;20240;-34
2022/04/05 12:11:05;;;;;;;16.35;7.90;;;;;;;;;;4953577;28;20090;-35
2022/04/05 12:13:31;;;;;;;12.52;7.85;;;;;;;;;;4951913;28;20038;-35
2022/04/05 12:16:01;;;;;;;14.18;8.45;;;;;;;;;;4953262;28;20074;-35
2022/04/05 12:18:28;;;;;;;13.60;8.80;;;;;;;;;;4953283;28;20035;-35
2022/04/05 12:20:54;;;;;;;10.63;7.13;;;;;;;;;;4953223;28;20038;-35
2022/04/05 12:23:20;;;;;;;11.57;8.43;;;;;;;;;;4953082;28;20605;-34
2022/04/05 12:26:05;;;;;;;12.98;8.00;;;;;;;;;;4953466;28;20027;-35
2022/04/05 12:28:32;;;;;;;14.10;7.85;;;;;;;;;;4953002;28;20035;-35
2022/04/05 12:31:11;;;;;;;15.77;8.73;;;;;;;;;;4953042;28;20058;-34
2022/04/05 12:33:38;;;;;;;13.55;7.30;;;;;;;;;;4953026;28;20067;-35
2022/04/05 12:36:07;;;;;;;15.82;9.73;;;;;;;;;;4955311;28;20028;-35
2022/04/05 12:38:34;;;;;;;15.43;9.02;;;;;;;;;;4956826;28;20389;-36
2022/04/05 12:41:02;;;;;;;15.32;7.78;;;;;;;;;;4971735;28;20138;-35
2022/04/05 12:43:28;;;;;;;15.35;9.45;;;;;;;;;;4956659;28;20047;-35
2022/04/05 12:45:54;;;;;;;15.63;9.38;;;;;;;;;;4956867;28;20040;-35
2022/04/05 12:48:22;;;;;;;13.95;8.90;;;;;;;;;;4956682;28;20375;-35
2022/04/05 12:50:51;;;;;;;21.20;11.10;;;;;;;;;;4956712;28;20031;-35
2022/04/05 12:53:25;;;;;;;16.25;8.43;;;;;;;;;;4956657;28;20031;-35
2022/04/05 12:55:59;;;;;;;15.32;8.52;;;;;;;;;;4971478;28;20066;-35
2022/04/05 12:58:40;;;;;;;12.95;7.53;;;;;;;;;;4956473;28;20110;-35
2022/04/05 13:01:19;;;;;;;14.80;9.07;;;;;;;;;;4971617;28;20043;-35
2022/04/05 13:03:45;;;;;;;19.23;9.05;;;;;;;;;;4956549;28;20043;-35
2022/04/05 13:06:20;;;;;;;10.35;7.05;;;;;;;;;;4956409;28;20030;-35
2022/04/05 13:08:46;;;;;;;18.13;9.52;;;;;;;;;;4956452;28;20408;-35
2022/04/05 13:11:22;;;;;;;11.85;8.00;;;;;;;;;;4971472;28;20339;-35
2022/04/05 13:14:00;;;;;;;16.42;8.13;;;;;;;;;;4970886;28;20467;-35
2022/04/05 13:16:27;;;;;;;17.58;8.60;;;;;;;;;;4954982;28;20470;-35
2022/04/05 13:18:53;;;;;;;14.65;9.05;;;;;;;;;;4956859;28;20023;-35
2022/04/05 13:21:22;;;;;;;15.45;8.63;;;;;;;;;;4956034;28;20035;-35
2022/04/05 13:24:02;;;;;;;19.83;10.43;;;;;;;;;;4970968;28;20086;-35
2022/04/05 13:26:28;;;;;;;13.68;8.93;;;;;;;;;;4955953;28;20082;-35
2022/04/05 13:29:20;;;;;;;14.32;9.57;;;;;;;;;;4956058;28;20038;-35
2022/04/05 13:31:55;;;;;;;14.75;8.23;;;;;;;;;;4955747;28;20039;-35
2022/04/05 13:34:22;;;;;;;22.92;10.55;;;;;;;;;;4956133;28;20058;-35
2022/04/05 13:36:50;;;;;;;13.18;7.13;;;;;;;;;;4955963;28;20027;-35
2022/04/05 13:39:16;;;;;;;16.55;8.77;;;;;;;;;;4955923;28;20066;-35
2022/04/05 13:41:42;;;;;;;17.20;9.23;;;;;;;;;;4955741;28;20110;-35
2022/04/05 13:44:09;;;;;;;18.80;8.43;;;;;;;;;;4970449;28;20058;-35
2022/04/05 13:46:36;;;;;;;19.73;8.88;;;;;;;;;;4954882;28;20470;-35
2022/04/05 13:49:06;;;;;;;16.40;7.65;;;;;;;;;;4955371;28;20094;-35
2022/04/05 13:51:32;;;;;;;16.85;10.40;;;;;;;;;;4955569;28;20070;-35
2022/04/05 13:53:58;;;;;;;13.32;7.63;;;;;;;;;;4955963;28;20058;-35
2022/04/05 13:56:24;;;;;;;17.08;9.70;;;;;;;;;;4955498;28;20078;-35
2022/04/05 13:58:50;;;;;;;18.58;8.95;;;;;;;;;;4955843;28;20035;-34
2022/04/05 14:01:16;;;;;;;17.02;9.90;;;;;;;;;;4955505;28;20024;-35
2022/04/05 14:03:42;;;;;;;16.35;8.77;;;;;;;;;;4955437;28;20114;-35
2022/04/05 14:06:08;;;;;;;18.00;8.18;;;;;;;;;;4955442;28;20422;-35
2022/04/05 14:08:35;;;;;;;20.88;10.10;;;;;;;;;;4955250;28;20105;-35
2022/04/05 14:11:01;;;;;;;12.80;8.02;;;;;;;;;;4955253;28;20019;-35
2022/04/05 14:13:27;;;;;;;16.33;8.95;;;;;;;;;;4955163;28;20054;-35
2022/04/05 14:15:53;;;;;;;14.98;8.02;;;;;;;;;;4955285;28;20019;-35
2022/04/05 14:18:19;;;;;;;20.73;9.02;;;;;;;;;;4955363;28;20114;-35
2022/04/05 14:20:45;;;;;;;15.68;9.57;;;;;;;;;;4955136;28;20011;-35
2022/04/05 14:23:11;;;;;;;14.20;8.38;;;;;;;;;;4955152;28;20469;-35
2022/04/05 14:25:37;;;;;;;16.27;7.80;;;;;;;;;;4955058;28;20027;-40
2022/04/05 14:28:06;;;;;;;11.02;7.38;;;;;;;;;;4954955;28;20042;-35
2022/04/05 14:30:32;;;;;;;17.90;8.23;;;;;;;;;;4969592;28;20082;-35
2022/04/05 14:32:59;;;;;;;15.52;8.60;;;;;;;;;;4953532;29;20382;-35
2022/04/05 14:35:25;;;;;;;14.13;7.78;;;;;;;;;;4953590;28;20023;-35
2022/04/05 14:37:50;;;;;;;15.55;8.95;;;;;;;;;;4954703;28;20062;-35
2022/04/05 14:40:16;;;;;;;13.23;8.65;;;;;;;;;;4954555;28;20027;-34